sensor_id;sensor_type;location;lat;lon;timestamp;P1;durP1;ratioP1;P2;durP2;ratioP2
48861;SDS011;34681;49.188;-0.374;2023-04-06T00:00:22;16.60;;;14.17;;
48861;SDS011;34681;49.188;-0.374;2023-04-06T00:02:48;18.77;;;16.50;;
48861;SDS011;34681;49.188;-0.374;2023-04-06T00:05:13;19.53;;;17.20;;
48861;SDS011;34681;49.188;-0.374;2023-04-06T00:07:39;25.83;;;19.43;;
48861;SDS011;34681;49.188;-0.374;2023-04-06T00:10:05;19.90;;;16.20;;
48861;SDS011;34681;49.188;-0.374;2023-04-06T00:12:31;17.80;;;16.13;;
48861;SDS011;34681;49.188;-0.374;2023-04-06T00:14:56;17.47;;;15.70;;
48861;SDS011;34681;49.188;-0.374;2023-04-06T00:17:22;17.77;;;16.07;;
48861;SDS011;34681;49.188;-0.374;2023-04-06T00:19:47;18.13;;;16.43;;
48861;SDS011;34681;49.188;-0.374;2023-04-06T00:22:12;18.83;;;16.70;;
48861;SDS011;34681;49.188;-0.374;2023-04-06T00:24:38;19.37;;;17.40;;
48861;SDS011;34681;49.188;-0.374;2023-04-06T00:27:03;18.53;;;16.73;;
48861;SDS011;34681;49.188;-0.374;2023-04-06T00:29:28;17.40;;;15.67;;
48861;SDS011;34681;49.188;-0.374;2023-04-06T00:31:54;17.00;;;15.30;;
48861;SDS011;34681;49.188;-0.374;2023-04-06T00:34:19;15.07;;;13.50;;
48861;SDS011;34681;49.188;-0.374;2023-04-06T00:36:45;15.73;;;14.23;;
48861;SDS011;34681;49.188;-0.374;2023-04-06T00:39:10;12.33;;;11.03;;
48861;SDS011;34681;49.188;-0.374;2023-04-06T00:41:36;12.03;;;10.90;;
48861;SDS011;34681;49.188;-0.374;2023-04-06T00:44:01;9.77;;;8.77;;
48861;SDS011;34681;49.188;-0.374;2023-04-06T00:46:26;9.93;;;8.93;;
48861;SDS011;34681;49.188;-0.374;2023-04-06T00:48:53;11.60;;;9.83;;
48861;SDS011;34681;49.188;-0.374;2023-04-06T00:51:18;9.00;;;8.23;;
48861;SDS011;34681;49.188;-0.374;2023-04-06T00:53:44;8.80;;;8.00;;
48861;SDS011;34681;49.188;-0.374;2023-04-06T00:56:10;8.73;;;7.40;;
48861;SDS011;34681;49.188;-0.374;2023-04-06T00:58:35;8.53;;;7.80;;
48861;SDS011;34681;49.188;-0.374;2023-04-06T01:01:03;7.83;;;7.07;;
48861;SDS011;34681;49.188;-0.374;2023-04-06T01:03:29;9.50;;;8.43;;
48861;SDS011;34681;49.188;-0.374;2023-04-06T01:05:54;7.47;;;6.50;;
48861;SDS011;34681;49.188;-0.374;2023-04-06T01:08:23;6.73;;;5.43;;
48861;SDS011;34681;49.188;-0.374;2023-04-06T01:10:49;5.93;;;5.43;;
48861;SDS011;34681;49.188;-0.374;2023-04-06T01:13:15;6.50;;;4.87;;
48861;SDS011;34681;49.188;-0.374;2023-04-06T01:15:40;4.50;;;4.10;;
48861;SDS011;34681;49.188;-0.374;2023-04-06T01:18:07;3.87;;;3.67;;
48861;SDS011;34681;49.188;-0.374;2023-04-06T01:20:35;4.30;;;3.90;;
48861;SDS011;34681;49.188;-0.374;2023-04-06T01:23:01;3.90;;;3.70;;
48861;SDS011;34681;49.188;-0.374;2023-04-06T01:25:26;3.00;;;2.80;;
48861;SDS011;34681;49.188;-0.374;2023-04-06T01:27:51;3.00;;;2.80;;
48861;SDS011;34681;49.188;-0.374;2023-04-06T01:30:17;3.23;;;3.03;;
48861;SDS011;34681;49.188;-0.374;2023-04-06T01:32:42;3.50;;;3.23;;
48861;SDS011;34681;49.188;-0.374;2023-04-06T01:35:08;3.33;;;3.13;;
48861;SDS011;34681;49.188;-0.374;2023-04-06T01:37:33;3.30;;;3.10;;
48861;SDS011;34681;49.188;-0.374;2023-04-06T01:39:59;3.80;;;3.50;;
48861;SDS011;34681;49.188;-0.374;2023-04-06T01:42:25;3.40;;;3.20;;
48861;SDS011;34681;49.188;-0.374;2023-04-06T01:44:51;4.03;;;3.73;;
48861;SDS011;34681;49.188;-0.374;2023-04-06T01:47:16;3.47;;;3.20;;
48861;SDS011;34681;49.188;-0.374;2023-04-06T01:49:42;3.87;;;3.57;;
48861;SDS011;34681;49.188;-0.374;2023-04-06T01:52:07;3.30;;;3.10;;
48861;SDS011;34681;49.188;-0.374;2023-04-06T01:54:32;4.20;;;3.90;;
48861;SDS011;34681;49.188;-0.374;2023-04-06T01:56:58;2.97;;;2.87;;
48861;SDS011;34681;49.188;-0.374;2023-04-06T01:59:23;3.60;;;3.37;;
48861;SDS011;34681;49.188;-0.374;2023-04-06T02:01:49;4.00;;;3.50;;
48861;SDS011;34681;49.188;-0.374;2023-04-06T02:04:14;3.23;;;3.00;;
48861;SDS011;34681;49.188;-0.374;2023-04-06T02:06:40;3.80;;;3.50;;
48861;SDS011;34681;49.188;-0.374;2023-04-06T02:09:05;2.90;;;2.80;;
48861;SDS011;34681;49.188;-0.374;2023-04-06T02:11:31;3.00;;;2.80;;
48861;SDS011;34681;49.188;-0.374;2023-04-06T02:13:56;3.27;;;3.07;;
48861;SDS011;34681;49.188;-0.374;2023-04-06T02:16:22;3.17;;;2.97;;
48861;SDS011;34681;49.188;-0.374;2023-04-06T02:18:47;3.77;;;3.57;;
48861;SDS011;34681;49.188;-0.374;2023-04-06T02:21:14;3.60;;;3.30;;
48861;SDS011;34681;49.188;-0.374;2023-04-06T02:23:44;4.70;;;3.30;;
48861;SDS011;34681;49.188;-0.374;2023-04-06T02:26:10;3.13;;;2.90;;
48861;SDS011;34681;49.188;-0.374;2023-04-06T02:28:35;3.10;;;2.90;;
48861;SDS011;34681;49.188;-0.374;2023-04-06T02:31:00;3.60;;;3.30;;
48861;SDS011;34681;49.188;-0.374;2023-04-06T02:33:26;3.17;;;2.97;;
48861;SDS011;34681;49.188;-0.374;2023-04-06T02:35:51;2.97;;;2.77;;
48861;SDS011;34681;49.188;-0.374;2023-04-06T02:38:16;3.07;;;2.87;;
48861;SDS011;34681;49.188;-0.374;2023-04-06T02:40:42;3.00;;;2.70;;
48861;SDS011;34681;49.188;-0.374;2023-04-06T02:43:07;2.93;;;2.63;;
48861;SDS011;34681;49.188;-0.374;2023-04-06T02:45:32;3.40;;;3.10;;
48861;SDS011;34681;49.188;-0.374;2023-04-06T02:47:58;3.63;;;3.43;;
48861;SDS011;34681;49.188;-0.374;2023-04-06T02:50:23;3.30;;;3.10;;
48861;SDS011;34681;49.188;-0.374;2023-04-06T02:52:48;3.17;;;2.87;;
48861;SDS011;34681;49.188;-0.374;2023-04-06T02:55:14;3.53;;;3.33;;
48861;SDS011;34681;49.188;-0.374;2023-04-06T02:57:39;3.37;;;3.17;;
48861;SDS011;34681;49.188;-0.374;2023-04-06T03:00:05;4.40;;;4.10;;
48861;SDS011;34681;49.188;-0.374;2023-04-06T03:02:31;3.90;;;3.70;;
48861;SDS011;34681;49.188;-0.374;2023-04-06T03:04:57;3.30;;;3.10;;
48861;SDS011;34681;49.188;-0.374;2023-04-06T03:07:22;2.97;;;2.77;;
48861;SDS011;34681;49.188;-0.374;2023-04-06T03:09:47;2.83;;;2.63;;
48861;SDS011;34681;49.188;-0.374;2023-04-06T03:12:13;3.07;;;2.97;;
48861;SDS011;34681;49.188;-0.374;2023-04-06T03:14:38;3.70;;;3.50;;
48861;SDS011;34681;49.188;-0.374;2023-04-06T03:17:03;4.30;;;4.00;;
48861;SDS011;34681;49.188;-0.374;2023-04-06T03:19:29;3.90;;;3.70;;
48861;SDS011;34681;49.188;-0.374;2023-04-06T03:21:54;3.97;;;3.67;;
48861;SDS011;34681;49.188;-0.374;2023-04-06T03:24:20;4.20;;;3.90;;
48861;SDS011;34681;49.188;-0.374;2023-04-06T03:26:45;4.17;;;3.87;;
48861;SDS011;34681;49.188;-0.374;2023-04-06T03:29:11;4.30;;;4.00;;
48861;SDS011;34681;49.188;-0.374;2023-04-06T03:31:36;4.03;;;3.70;;
48861;SDS011;34681;49.188;-0.374;2023-04-06T03:34:01;4.00;;;3.80;;
48861;SDS011;34681;49.188;-0.374;2023-04-06T03:36:27;4.37;;;4.07;;
48861;SDS011;34681;49.188;-0.374;2023-04-06T03:38:52;4.03;;;3.73;;
48861;SDS011;34681;49.188;-0.374;2023-04-06T03:41:20;4.83;;;3.87;;
48861;SDS011;34681;49.188;-0.374;2023-04-06T03:43:46;4.50;;;4.20;;
48861;SDS011;34681;49.188;-0.374;2023-04-06T03:46:11;4.40;;;4.10;;
48861;SDS011;34681;49.188;-0.374;2023-04-06T03:48:37;4.43;;;4.13;;
48861;SDS011;34681;49.188;-0.374;2023-04-06T03:51:02;5.43;;;5.10;;
48861;SDS011;34681;49.188;-0.374;2023-04-06T03:53:28;4.60;;;4.30;;
48861;SDS011;34681;49.188;-0.374;2023-04-06T03:55:53;5.40;;;4.90;;
48861;SDS011;34681;49.188;-0.374;2023-04-06T03:58:18;6.30;;;5.90;;
48861;SDS011;34681;49.188;-0.374;2023-04-06T04:00:44;5.60;;;5.20;;
48861;SDS011;34681;49.188;-0.374;2023-04-06T04:03:09;5.57;;;5.17;;
48861;SDS011;34681;49.188;-0.374;2023-04-06T04:05:35;6.73;;;6.10;;
48861;SDS011;34681;49.188;-0.374;2023-04-06T04:08:00;6.17;;;5.70;;
48861;SDS011;34681;49.188;-0.374;2023-04-06T04:10:26;6.90;;;5.70;;
48861;SDS011;34681;49.188;-0.374;2023-04-06T04:12:51;6.10;;;5.70;;
48861;SDS011;34681;49.188;-0.374;2023-04-06T04:15:16;6.17;;;5.77;;
48861;SDS011;34681;49.188;-0.374;2023-04-06T04:17:42;7.10;;;6.40;;
48861;SDS011;34681;49.188;-0.374;2023-04-06T04:20:11;6.13;;;5.73;;
48861;SDS011;34681;49.188;-0.374;2023-04-06T04:22:37;5.80;;;5.30;;
48861;SDS011;34681;49.188;-0.374;2023-04-06T04:25:02;6.23;;;5.80;;
48861;SDS011;34681;49.188;-0.374;2023-04-06T04:27:28;6.50;;;6.00;;
48861;SDS011;34681;49.188;-0.374;2023-04-06T04:29:53;6.70;;;6.20;;
48861;SDS011;34681;49.188;-0.374;2023-04-06T04:32:19;6.70;;;6.20;;
48861;SDS011;34681;49.188;-0.374;2023-04-06T04:34:44;6.33;;;5.70;;
48861;SDS011;34681;49.188;-0.374;2023-04-06T04:37:10;6.97;;;6.30;;
48861;SDS011;34681;49.188;-0.374;2023-04-06T04:39:35;6.57;;;6.00;;
48861;SDS011;34681;49.188;-0.374;2023-04-06T04:42:00;6.63;;;6.13;;
48861;SDS011;34681;49.188;-0.374;2023-04-06T04:44:26;7.10;;;6.60;;
48861;SDS011;34681;49.188;-0.374;2023-04-06T04:46:51;8.03;;;7.20;;
48861;SDS011;34681;49.188;-0.374;2023-04-06T04:49:17;7.23;;;6.63;;
48861;SDS011;34681;49.188;-0.374;2023-04-06T04:51:42;9.40;;;6.87;;
48861;SDS011;34681;49.188;-0.374;2023-04-06T04:54:07;6.83;;;6.33;;
48861;SDS011;34681;49.188;-0.374;2023-04-06T04:56:33;5.83;;;5.40;;
48861;SDS011;34681;49.188;-0.374;2023-04-06T04:58:58;8.40;;;7.13;;
48861;SDS011;34681;49.188;-0.374;2023-04-06T05:01:23;6.00;;;5.57;;
48861;SDS011;34681;49.188;-0.374;2023-04-06T05:03:49;7.17;;;6.67;;
48861;SDS011;34681;49.188;-0.374;2023-04-06T05:06:14;5.97;;;5.57;;
48861;SDS011;34681;49.188;-0.374;2023-04-06T05:08:40;6.87;;;6.27;;
48861;SDS011;34681;49.188;-0.374;2023-04-06T05:11:06;6.67;;;6.17;;
48861;SDS011;34681;49.188;-0.374;2023-04-06T05:13:31;7.93;;;7.23;;
48861;SDS011;34681;49.188;-0.374;2023-04-06T05:15:57;6.70;;;6.10;;
48861;SDS011;34681;49.188;-0.374;2023-04-06T05:18:22;7.03;;;6.43;;
48861;SDS011;34681;49.188;-0.374;2023-04-06T05:20:47;7.10;;;6.60;;
48861;SDS011;34681;49.188;-0.374;2023-04-06T05:23:13;7.07;;;6.47;;
48861;SDS011;34681;49.188;-0.374;2023-04-06T05:25:38;6.70;;;6.00;;
48861;SDS011;34681;49.188;-0.374;2023-04-06T05:28:04;7.07;;;6.47;;
48861;SDS011;34681;49.188;-0.374;2023-04-06T05:30:29;7.20;;;6.63;;
48861;SDS011;34681;49.188;-0.374;2023-04-06T05:32:55;6.73;;;6.23;;
48861;SDS011;34681;49.188;-0.374;2023-04-06T05:35:20;8.13;;;7.43;;
48861;SDS011;34681;49.188;-0.374;2023-04-06T05:37:45;7.00;;;6.40;;
48861;SDS011;34681;49.188;-0.374;2023-04-06T05:40:11;8.83;;;7.40;;
48861;SDS011;34681;49.188;-0.374;2023-04-06T05:42:40;6.93;;;6.33;;
48861;SDS011;34681;49.188;-0.374;2023-04-06T05:45:07;7.47;;;6.90;;
48861;SDS011;34681;49.188;-0.374;2023-04-06T05:47:33;8.70;;;7.97;;
48861;SDS011;34681;49.188;-0.374;2023-04-06T05:49:59;9.03;;;8.33;;
48861;SDS011;34681;49.188;-0.374;2023-04-06T05:52:24;6.93;;;6.33;;
48861;SDS011;34681;49.188;-0.374;2023-04-06T05:54:50;8.17;;;7.53;;
48861;SDS011;34681;49.188;-0.374;2023-04-06T05:57:15;7.27;;;6.67;;
48861;SDS011;34681;49.188;-0.374;2023-04-06T05:59:41;7.83;;;7.00;;
48861;SDS011;34681;49.188;-0.374;2023-04-06T06:02:07;9.53;;;8.73;;
48861;SDS011;34681;49.188;-0.374;2023-04-06T06:04:32;8.90;;;8.00;;
48861;SDS011;34681;49.188;-0.374;2023-04-06T06:06:58;9.07;;;8.33;;
48861;SDS011;34681;49.188;-0.374;2023-04-06T06:09:23;9.67;;;8.77;;
48861;SDS011;34681;49.188;-0.374;2023-04-06T06:11:48;9.27;;;8.43;;
48861;SDS011;34681;49.188;-0.374;2023-04-06T06:14:14;8.17;;;7.47;;
48861;SDS011;34681;49.188;-0.374;2023-04-06T06:16:40;8.20;;;7.50;;
48861;SDS011;34681;49.188;-0.374;2023-04-06T06:19:05;8.60;;;7.97;;
48861;SDS011;34681;49.188;-0.374;2023-04-06T06:21:31;8.70;;;8.00;;
48861;SDS011;34681;49.188;-0.374;2023-04-06T06:23:56;7.80;;;7.30;;
48861;SDS011;34681;49.188;-0.374;2023-04-06T06:26:22;9.63;;;8.73;;
48861;SDS011;34681;49.188;-0.374;2023-04-06T06:28:47;8.03;;;7.30;;
48861;SDS011;34681;49.188;-0.374;2023-04-06T06:31:13;8.60;;;7.83;;
48861;SDS011;34681;49.188;-0.374;2023-04-06T06:33:38;8.60;;;7.80;;
48861;SDS011;34681;49.188;-0.374;2023-04-06T06:36:03;8.23;;;7.47;;
48861;SDS011;34681;49.188;-0.374;2023-04-06T06:38:29;7.37;;;6.63;;
48861;SDS011;34681;49.188;-0.374;2023-04-06T06:40:55;7.63;;;6.60;;
48861;SDS011;34681;49.188;-0.374;2023-04-06T06:43:20;7.07;;;6.57;;
48861;SDS011;34681;49.188;-0.374;2023-04-06T06:45:45;6.63;;;6.20;;
48861;SDS011;34681;49.188;-0.374;2023-04-06T06:48:11;7.07;;;6.37;;
48861;SDS011;34681;49.188;-0.374;2023-04-06T06:50:37;7.00;;;6.50;;
48861;SDS011;34681;49.188;-0.374;2023-04-06T06:53:02;6.77;;;6.23;;
48861;SDS011;34681;49.188;-0.374;2023-04-06T06:55:28;7.07;;;6.20;;
48861;SDS011;34681;49.188;-0.374;2023-04-06T06:57:53;5.80;;;5.40;;
48861;SDS011;34681;49.188;-0.374;2023-04-06T07:00:19;6.90;;;6.20;;
48861;SDS011;34681;49.188;-0.374;2023-04-06T07:02:48;7.43;;;6.73;;
48861;SDS011;34681;49.188;-0.374;2023-04-06T07:05:13;6.40;;;5.70;;
48861;SDS011;34681;49.188;-0.374;2023-04-06T07:07:40;5.90;;;5.40;;
48861;SDS011;34681;49.188;-0.374;2023-04-06T07:10:06;5.67;;;5.10;;
48861;SDS011;34681;49.188;-0.374;2023-04-06T07:12:31;5.13;;;4.73;;
48861;SDS011;34681;49.188;-0.374;2023-04-06T07:14:59;5.50;;;5.00;;
48861;SDS011;34681;49.188;-0.374;2023-04-06T07:17:27;6.03;;;4.13;;
48861;SDS011;34681;49.188;-0.374;2023-04-06T07:19:52;4.03;;;3.73;;
48861;SDS011;34681;49.188;-0.374;2023-04-06T07:22:17;5.90;;;4.40;;
48861;SDS011;34681;49.188;-0.374;2023-04-06T07:24:43;5.63;;;3.97;;
48861;SDS011;34681;49.188;-0.374;2023-04-06T07:27:08;3.33;;;3.00;;
48861;SDS011;34681;49.188;-0.374;2023-04-06T07:29:34;4.43;;;3.27;;
48861;SDS011;34681;49.188;-0.374;2023-04-06T07:31:59;4.33;;;3.43;;
48861;SDS011;34681;49.188;-0.374;2023-04-06T07:34:25;3.60;;;3.30;;
48861;SDS011;34681;49.188;-0.374;2023-04-06T07:36:50;3.87;;;3.20;;
48861;SDS011;34681;49.188;-0.374;2023-04-06T07:39:17;4.20;;;3.90;;
48861;SDS011;34681;49.188;-0.374;2023-04-06T07:41:43;2.97;;;2.77;;
48861;SDS011;34681;49.188;-0.374;2023-04-06T07:44:08;3.87;;;3.37;;
48861;SDS011;34681;49.188;-0.374;2023-04-06T07:46:33;3.60;;;3.30;;
48861;SDS011;34681;49.188;-0.374;2023-04-06T07:48:59;5.10;;;4.70;;
48861;SDS011;34681;49.188;-0.374;2023-04-06T07:51:26;3.80;;;3.50;;
48861;SDS011;34681;49.188;-0.374;2023-04-06T07:53:51;3.80;;;3.50;;
48861;SDS011;34681;49.188;-0.374;2023-04-06T07:56:17;3.60;;;3.40;;
48861;SDS011;34681;49.188;-0.374;2023-04-06T07:58:43;3.70;;;3.37;;
48861;SDS011;34681;49.188;-0.374;2023-04-06T08:01:08;5.43;;;3.90;;
48861;SDS011;34681;49.188;-0.374;2023-04-06T08:03:34;4.97;;;3.33;;
48861;SDS011;34681;49.188;-0.374;2023-04-06T08:06:00;5.17;;;3.60;;
48861;SDS011;34681;49.188;-0.374;2023-04-06T08:08:26;5.03;;;4.30;;
48861;SDS011;34681;49.188;-0.374;2023-04-06T08:10:51;4.00;;;3.73;;
48861;SDS011;34681;49.188;-0.374;2023-04-06T08:13:17;5.87;;;4.27;;
48861;SDS011;34681;49.188;-0.374;2023-04-06T08:15:42;3.87;;;3.50;;
48861;SDS011;34681;49.188;-0.374;2023-04-06T08:18:08;5.83;;;3.70;;
48861;SDS011;34681;49.188;-0.374;2023-04-06T08:20:34;5.33;;;3.67;;
48861;SDS011;34681;49.188;-0.374;2023-04-06T08:23:00;6.80;;;4.30;;
48861;SDS011;34681;49.188;-0.374;2023-04-06T08:25:25;7.93;;;5.37;;
48861;SDS011;34681;49.188;-0.374;2023-04-06T08:27:51;5.03;;;3.80;;
48861;SDS011;34681;49.188;-0.374;2023-04-06T08:30:16;7.23;;;4.27;;
48861;SDS011;34681;49.188;-0.374;2023-04-06T08:32:43;7.23;;;3.80;;
48861;SDS011;34681;49.188;-0.374;2023-04-06T08:35:09;4.00;;;3.60;;
48861;SDS011;34681;49.188;-0.374;2023-04-06T08:37:35;4.93;;;2.70;;
48861;SDS011;34681;49.188;-0.374;2023-04-06T08:40:00;7.43;;;3.10;;
48861;SDS011;34681;49.188;-0.374;2023-04-06T08:42:26;4.67;;;3.20;;
48861;SDS011;34681;49.188;-0.374;2023-04-06T08:44:53;6.47;;;3.93;;
48861;SDS011;34681;49.188;-0.374;2023-04-06T08:47:20;6.70;;;3.37;;
48861;SDS011;34681;49.188;-0.374;2023-04-06T08:49:46;6.60;;;2.40;;
48861;SDS011;34681;49.188;-0.374;2023-04-06T08:52:12;5.00;;;2.23;;
48861;SDS011;34681;49.188;-0.374;2023-04-06T08:54:39;3.83;;;2.37;;
48861;SDS011;34681;49.188;-0.374;2023-04-06T08:57:04;6.53;;;2.90;;
48861;SDS011;34681;49.188;-0.374;2023-04-06T08:59:31;5.33;;;2.70;;
48861;SDS011;34681;49.188;-0.374;2023-04-06T09:01:57;4.50;;;2.27;;
48861;SDS011;34681;49.188;-0.374;2023-04-06T09:04:24;9.10;;;3.03;;
48861;SDS011;34681;49.188;-0.374;2023-04-06T09:06:51;6.93;;;2.70;;
48861;SDS011;34681;49.188;-0.374;2023-04-06T09:09:17;7.50;;;3.00;;
48861;SDS011;34681;49.188;-0.374;2023-04-06T09:11:46;4.00;;;2.60;;
48861;SDS011;34681;49.188;-0.374;2023-04-06T09:14:13;4.03;;;1.90;;
48861;SDS011;34681;49.188;-0.374;2023-04-06T09:16:40;6.07;;;2.93;;
48861;SDS011;34681;49.188;-0.374;2023-04-06T09:19:07;5.20;;;3.10;;
48861;SDS011;34681;49.188;-0.374;2023-04-06T09:21:32;7.77;;;3.00;;
48861;SDS011;34681;49.188;-0.374;2023-04-06T09:23:58;3.80;;;2.63;;
48861;SDS011;34681;49.188;-0.374;2023-04-06T09:26:25;12.50;;;2.80;;
48861;SDS011;34681;49.188;-0.374;2023-04-06T09:28:53;7.73;;;2.80;;
48861;SDS011;34681;49.188;-0.374;2023-04-06T09:31:23;7.90;;;2.90;;
48861;SDS011;34681;49.188;-0.374;2023-04-06T09:33:50;7.70;;;3.00;;
48861;SDS011;34681;49.188;-0.374;2023-04-06T09:36:19;6.40;;;2.30;;
48861;SDS011;34681;49.188;-0.374;2023-04-06T09:38:55;7.13;;;2.83;;
48861;SDS011;34681;49.188;-0.374;2023-04-06T09:41:26;7.53;;;2.57;;
48861;SDS011;34681;49.188;-0.374;2023-04-06T09:44:06;6.70;;;2.70;;
48861;SDS011;34681;49.188;-0.374;2023-04-06T09:46:34;5.40;;;2.43;;
48861;SDS011;34681;49.188;-0.374;2023-04-06T09:49:02;5.03;;;2.50;;
48861;SDS011;34681;49.188;-0.374;2023-04-06T09:51:32;7.00;;;2.00;;
48861;SDS011;34681;49.188;-0.374;2023-04-06T09:54:01;8.23;;;2.67;;
48861;SDS011;34681;49.188;-0.374;2023-04-06T09:56:31;11.40;;;2.57;;
48861;SDS011;34681;49.188;-0.374;2023-04-06T09:59:02;6.47;;;2.00;;
48861;SDS011;34681;49.188;-0.374;2023-04-06T10:01:30;3.80;;;2.00;;
48861;SDS011;34681;49.188;-0.374;2023-04-06T10:06:51;5.63;;;2.20;;
48861;SDS011;34681;49.188;-0.374;2023-04-06T10:09:17;3.50;;;2.20;;
48861;SDS011;34681;49.188;-0.374;2023-04-06T10:11:46;5.50;;;2.50;;
48861;SDS011;34681;49.188;-0.374;2023-04-06T10:14:13;8.17;;;2.10;;
48861;SDS011;34681;49.188;-0.374;2023-04-06T10:16:40;8.83;;;2.90;;
48861;SDS011;34681;49.188;-0.374;2023-04-06T10:19:10;7.10;;;2.67;;
48861;SDS011;34681;49.188;-0.374;2023-04-06T10:21:41;3.90;;;2.37;;
48861;SDS011;34681;49.188;-0.374;2023-04-06T10:24:13;5.73;;;2.27;;
48861;SDS011;34681;49.188;-0.374;2023-04-06T10:26:39;5.77;;;2.37;;
48861;SDS011;34681;49.188;-0.374;2023-04-06T10:29:05;4.17;;;1.97;;
48861;SDS011;34681;49.188;-0.374;2023-04-06T10:31:31;7.13;;;2.20;;
48861;SDS011;34681;49.188;-0.374;2023-04-06T10:33:57;12.50;;;3.20;;
48861;SDS011;34681;49.188;-0.374;2023-04-06T10:36:24;10.33;;;2.67;;
48861;SDS011;34681;49.188;-0.374;2023-04-06T10:38:58;8.70;;;3.73;;
48861;SDS011;34681;49.188;-0.374;2023-04-06T10:41:32;6.63;;;3.20;;
48861;SDS011;34681;49.188;-0.374;2023-04-06T10:43:59;11.07;;;3.37;;
48861;SDS011;34681;49.188;-0.374;2023-04-06T10:46:26;8.77;;;2.77;;
48861;SDS011;34681;49.188;-0.374;2023-04-06T10:48:55;5.60;;;2.53;;
48861;SDS011;34681;49.188;-0.374;2023-04-06T10:51:25;11.30;;;2.60;;
48861;SDS011;34681;49.188;-0.374;2023-04-06T10:53:53;12.00;;;3.40;;
48861;SDS011;34681;49.188;-0.374;2023-04-06T10:56:21;7.10;;;3.30;;
48861;SDS011;34681;49.188;-0.374;2023-04-06T10:58:48;5.10;;;2.60;;
48861;SDS011;34681;49.188;-0.374;2023-04-06T11:01:19;8.40;;;3.27;;
48861;SDS011;34681;49.188;-0.374;2023-04-06T11:03:53;4.47;;;2.33;;
48861;SDS011;34681;49.188;-0.374;2023-04-06T11:08:47;6.80;;;2.43;;
48861;SDS011;34681;49.188;-0.374;2023-04-06T11:11:14;10.43;;;3.03;;
48861;SDS011;34681;49.188;-0.374;2023-04-06T11:16:14;15.17;;;3.50;;
48861;SDS011;34681;49.188;-0.374;2023-04-06T11:18:51;4.57;;;2.20;;
48861;SDS011;34681;49.188;-0.374;2023-04-06T11:21:19;7.90;;;1.90;;
48861;SDS011;34681;49.188;-0.374;2023-04-06T11:24:13;9.07;;;2.80;;
48861;SDS011;34681;49.188;-0.374;2023-04-06T11:26:55;10.43;;;2.70;;
48861;SDS011;34681;49.188;-0.374;2023-04-06T11:29:28;10.07;;;3.27;;
48861;SDS011;34681;49.188;-0.374;2023-04-06T11:32:04;5.60;;;2.03;;
48861;SDS011;34681;49.188;-0.374;2023-04-06T11:34:33;11.43;;;2.87;;
48861;SDS011;34681;49.188;-0.374;2023-04-06T11:37:03;10.07;;;2.90;;
48861;SDS011;34681;49.188;-0.374;2023-04-06T11:39:36;6.13;;;2.40;;
48861;SDS011;34681;49.188;-0.374;2023-04-06T11:42:06;10.00;;;2.80;;
48861;SDS011;34681;49.188;-0.374;2023-04-06T11:47:05;6.67;;;2.83;;
48861;SDS011;34681;49.188;-0.374;2023-04-06T11:49:33;8.97;;;2.90;;
48861;SDS011;34681;49.188;-0.374;2023-04-06T11:52:02;7.67;;;2.50;;
48861;SDS011;34681;49.188;-0.374;2023-04-06T11:54:31;5.20;;;2.87;;
48861;SDS011;34681;49.188;-0.374;2023-04-06T11:57:00;7.40;;;2.67;;
48861;SDS011;34681;49.188;-0.374;2023-04-06T11:59:27;5.07;;;2.23;;
48861;SDS011;34681;49.188;-0.374;2023-04-06T12:01:53;5.13;;;2.23;;
48861;SDS011;34681;49.188;-0.374;2023-04-06T12:04:18;7.03;;;2.90;;
48861;SDS011;34681;49.188;-0.374;2023-04-06T12:06:44;6.57;;;2.37;;
48861;SDS011;34681;49.188;-0.374;2023-04-06T12:09:10;6.57;;;2.70;;
48861;SDS011;34681;49.188;-0.374;2023-04-06T12:11:35;6.50;;;2.73;;
48861;SDS011;34681;49.188;-0.374;2023-04-06T12:14:00;6.47;;;2.57;;
48861;SDS011;34681;49.188;-0.374;2023-04-06T12:16:29;7.67;;;2.80;;
48861;SDS011;34681;49.188;-0.374;2023-04-06T12:18:55;4.37;;;2.10;;
48861;SDS011;34681;49.188;-0.374;2023-04-06T12:21:20;6.60;;;2.43;;
48861;SDS011;34681;49.188;-0.374;2023-04-06T12:23:46;3.70;;;2.23;;
48861;SDS011;34681;49.188;-0.374;2023-04-06T12:26:11;4.60;;;2.43;;
48861;SDS011;34681;49.188;-0.374;2023-04-06T12:28:37;7.90;;;2.20;;
48861;SDS011;34681;49.188;-0.374;2023-04-06T12:31:02;3.93;;;2.03;;
48861;SDS011;34681;49.188;-0.374;2023-04-06T12:33:27;6.27;;;2.20;;
48861;SDS011;34681;49.188;-0.374;2023-04-06T12:35:53;7.10;;;2.27;;
48861;SDS011;34681;49.188;-0.374;2023-04-06T12:38:18;5.30;;;2.60;;
48861;SDS011;34681;49.188;-0.374;2023-04-06T12:40:43;4.60;;;2.03;;
48861;SDS011;34681;49.188;-0.374;2023-04-06T12:43:09;6.40;;;2.50;;
48861;SDS011;34681;49.188;-0.374;2023-04-06T12:45:34;6.40;;;3.10;;
48861;SDS011;34681;49.188;-0.374;2023-04-06T12:48:00;6.50;;;2.63;;
48861;SDS011;34681;49.188;-0.374;2023-04-06T12:50:25;5.53;;;2.03;;
48861;SDS011;34681;49.188;-0.374;2023-04-06T12:52:51;6.20;;;2.10;;
48861;SDS011;34681;49.188;-0.374;2023-04-06T12:55:16;6.00;;;2.57;;
48861;SDS011;34681;49.188;-0.374;2023-04-06T12:57:42;7.10;;;2.27;;
48861;SDS011;34681;49.188;-0.374;2023-04-06T13:00:08;5.10;;;2.03;;
48861;SDS011;34681;49.188;-0.374;2023-04-06T13:02:33;6.03;;;2.37;;
48861;SDS011;34681;49.188;-0.374;2023-04-06T13:04:59;5.43;;;2.30;;
48861;SDS011;34681;49.188;-0.374;2023-04-06T13:07:25;4.50;;;1.67;;
48861;SDS011;34681;49.188;-0.374;2023-04-06T13:09:51;7.97;;;2.17;;
48861;SDS011;34681;49.188;-0.374;2023-04-06T13:12:16;3.80;;;2.13;;
48861;SDS011;34681;49.188;-0.374;2023-04-06T13:14:41;5.63;;;2.23;;
48861;SDS011;34681;49.188;-0.374;2023-04-06T13:17:07;4.30;;;2.37;;
48861;SDS011;34681;49.188;-0.374;2023-04-06T13:19:33;6.10;;;2.53;;
48861;SDS011;34681;49.188;-0.374;2023-04-06T13:21:58;4.27;;;1.80;;
48861;SDS011;34681;49.188;-0.374;2023-04-06T13:24:24;3.60;;;1.73;;
48861;SDS011;34681;49.188;-0.374;2023-04-06T13:26:49;5.37;;;2.30;;
48861;SDS011;34681;49.188;-0.374;2023-04-06T13:29:14;2.93;;;1.63;;
48861;SDS011;34681;49.188;-0.374;2023-04-06T13:31:40;5.90;;;2.20;;
48861;SDS011;34681;49.188;-0.374;2023-04-06T13:34:06;4.43;;;1.97;;
48861;SDS011;34681;49.188;-0.374;2023-04-06T13:36:31;5.37;;;2.13;;
48861;SDS011;34681;49.188;-0.374;2023-04-06T13:38:57;2.60;;;2.03;;
48861;SDS011;34681;49.188;-0.374;2023-04-06T13:41:23;3.90;;;2.20;;
48861;SDS011;34681;49.188;-0.374;2023-04-06T13:43:50;4.23;;;2.00;;
48861;SDS011;34681;49.188;-0.374;2023-04-06T13:46:16;3.43;;;2.13;;
48861;SDS011;34681;49.188;-0.374;2023-04-06T13:48:42;4.67;;;2.47;;
48861;SDS011;34681;49.188;-0.374;2023-04-06T13:51:11;7.90;;;2.10;;
48861;SDS011;34681;49.188;-0.374;2023-04-06T13:53:38;3.67;;;2.00;;
48861;SDS011;34681;49.188;-0.374;2023-04-06T13:56:04;4.77;;;1.90;;
48861;SDS011;34681;49.188;-0.374;2023-04-06T13:58:30;6.33;;;2.57;;
48861;SDS011;34681;49.188;-0.374;2023-04-06T14:01:01;5.87;;;1.90;;
48861;SDS011;34681;49.188;-0.374;2023-04-06T14:03:31;9.30;;;2.97;;
48861;SDS011;34681;49.188;-0.374;2023-04-06T14:05:56;3.80;;;2.13;;
48861;SDS011;34681;49.188;-0.374;2023-04-06T14:08:22;5.73;;;2.80;;
48861;SDS011;34681;49.188;-0.374;2023-04-06T14:10:47;7.13;;;2.83;;
48861;SDS011;34681;49.188;-0.374;2023-04-06T14:13:12;6.13;;;2.40;;
48861;SDS011;34681;49.188;-0.374;2023-04-06T14:15:38;10.23;;;3.83;;
48861;SDS011;34681;49.188;-0.374;2023-04-06T14:18:03;5.50;;;2.33;;
48861;SDS011;34681;49.188;-0.374;2023-04-06T14:20:30;5.47;;;2.50;;
48861;SDS011;34681;49.188;-0.374;2023-04-06T14:22:56;6.80;;;2.03;;
48861;SDS011;34681;49.188;-0.374;2023-04-06T14:25:22;5.00;;;2.33;;
48861;SDS011;34681;49.188;-0.374;2023-04-06T14:27:47;5.77;;;2.93;;
48861;SDS011;34681;49.188;-0.374;2023-04-06T14:30:12;6.33;;;3.20;;
48861;SDS011;34681;49.188;-0.374;2023-04-06T14:32:38;9.80;;;2.40;;
48861;SDS011;34681;49.188;-0.374;2023-04-06T14:35:04;8.70;;;2.43;;
48861;SDS011;34681;49.188;-0.374;2023-04-06T14:37:30;8.50;;;3.00;;